createdAt,value
2018-03-28T00:02:15.053Z,6.20
2018-03-28T00:04:43.245Z,6.10
2018-03-28T00:07:11.426Z,6.10
2018-03-28T00:09:39.610Z,6.10
2018-03-28T00:12:07.799Z,6.10
2018-03-28T00:14:35.992Z,6.10
2018-03-28T00:17:04.181Z,6.00
2018-03-28T00:19:32.392Z,6.00
2018-03-28T00:22:01.400Z,6.00
2018-03-28T00:24:30.647Z,5.90
2018-03-28T00:26:58.810Z,5.90
2018-03-28T00:29:26.977Z,5.90
2018-03-28T00:31:55.151Z,6.00
2018-03-28T00:34:23.301Z,6.00
2018-03-28T00:36:51.508Z,6.00
2018-03-28T00:39:19.674Z,6.00
2018-03-28T00:41:47.876Z,6.00
2018-03-28T00:44:16.065Z,5.90
2018-03-28T00:46:44.299Z,5.90
2018-03-28T00:49:12.476Z,5.90
2018-03-28T00:51:40.653Z,5.90
2018-03-28T00:54:08.824Z,5.90
2018-03-28T00:56:37.003Z,5.90
2018-03-28T00:59:05.161Z,6.00
2018-03-28T01:01:33.410Z,6.00
2018-03-28T01:04:02.383Z,6.00
2018-03-28T01:06:31.333Z,6.00
2018-03-28T01:08:59.529Z,5.90
2018-03-28T01:11:27.774Z,6.00
2018-03-28T01:13:55.970Z,5.90
2018-03-28T01:16:24.151Z,5.90
2018-03-28T01:18:52.331Z,5.90
2018-03-28T01:21:20.480Z,6.00
2018-03-28T01:23:48.649Z,5.90
2018-03-28T01:26:16.851Z,5.90
2018-03-28T01:28:45.006Z,5.90
2018-03-28T01:31:13.197Z,5.90
2018-03-28T01:33:41.378Z,5.90
2018-03-28T01:36:10.343Z,5.90
2018-03-28T01:38:38.510Z,5.80
2018-03-28T01:41:06.688Z,5.90
2018-03-28T01:43:34.909Z,5.90
2018-03-28T01:46:03.062Z,5.90
2018-03-28T01:48:31.965Z,5.80
2018-03-28T01:51:00.139Z,5.80
2018-03-28T01:53:29.103Z,5.80
2018-03-28T01:55:57.346Z,5.80
2018-03-28T01:58:25.563Z,5.90
2018-03-28T02:00:54.533Z,5.80
2018-03-28T02:03:22.705Z,5.80
2018-03-28T02:05:50.892Z,5.80
2018-03-28T02:08:19.080Z,5.80
2018-03-28T02:10:48.003Z,5.90
2018-03-28T02:13:16.200Z,5.90
2018-03-28T02:15:44.427Z,5.80
2018-03-28T02:18:13.364Z,5.80
2018-03-28T02:20:41.555Z,5.80
2018-03-28T02:23:09.746Z,5.80
2018-03-28T02:25:37.964Z,5.80
2018-03-28T02:28:06.106Z,5.90
2018-03-28T02:30:35.069Z,5.90
2018-03-28T02:33:03.257Z,5.90
2018-03-28T02:35:32.194Z,5.90
2018-03-28T02:38:00.499Z,5.80
2018-03-28T02:40:29.482Z,5.80
2018-03-28T02:42:57.644Z,5.80
2018-03-28T02:45:25.820Z,5.90
2018-03-28T02:47:54.000Z,5.90
2018-03-28T02:50:22.164Z,5.80
2018-03-28T02:52:50.386Z,5.80
2018-03-28T02:55:19.342Z,5.80
2018-03-28T02:57:47.513Z,5.80
2018-03-28T03:00:15.703Z,5.80
2018-03-28T03:02:44.282Z,5.80
2018-03-28T03:05:12.652Z,5.80
2018-03-28T03:07:40.851Z,5.70
2018-03-28T03:10:09.032Z,5.80
2018-03-28T03:12:37.198Z,5.80
2018-03-28T03:15:05.394Z,5.90
2018-03-28T03:17:34.325Z,5.90
2018-03-28T03:20:02.518Z,5.80
2018-03-28T03:22:30.738Z,5.90
2018-03-28T03:24:59.177Z,5.80
2018-03-28T03:27:27.370Z,5.80
2018-03-28T03:29:56.322Z,5.80
2018-03-28T03:32:24.491Z,5.80
2018-03-28T03:34:52.729Z,5.80
2018-03-28T03:37:20.955Z,5.80
2018-03-28T03:39:49.181Z,5.80
2018-03-28T03:42:17.386Z,5.80
2018-03-28T03:44:45.558Z,5.80
2018-03-28T03:47:13.764Z,5.70
2018-03-28T03:49:42.743Z,5.60
2018-03-28T03:52:10.925Z,5.60
2018-03-28T03:54:39.127Z,5.70
2018-03-28T03:57:08.132Z,5.70
2018-03-28T03:59:36.321Z,5.70
2018-03-28T04:02:04.489Z,5.70
2018-03-28T04:04:32.656Z,5.60
2018-03-28T04:07:00.839Z,5.60
2018-03-28T04:09:29.070Z,5.60
2018-03-28T04:11:58.011Z,5.50
2018-03-28T04:14:26.182Z,5.50
2018-03-28T04:16:54.428Z,5.40
2018-03-28T04:19:22.614Z,5.40
2018-03-28T04:21:50.829Z,5.40
2018-03-28T04:24:18.990Z,5.40
2018-03-28T04:26:47.155Z,5.40
2018-03-28T04:29:15.394Z,5.40
2018-03-28T04:31:44.334Z,5.30
2018-03-28T04:34:12.579Z,5.30
2018-03-28T04:36:40.826Z,5.20
2018-03-28T04:39:08.987Z,5.20
2018-03-28T04:41:37.948Z,5.00
2018-03-28T04:44:06.155Z,5.00
2018-03-28T04:46:35.090Z,4.70
2018-03-28T04:49:03.370Z,4.70
2018-03-28T04:51:31.551Z,4.60
2018-03-28T04:53:59.741Z,4.60
2018-03-28T04:56:27.918Z,4.60
2018-03-28T04:58:56.137Z,4.60
2018-03-28T05:01:24.325Z,4.60
2018-03-28T05:03:52.510Z,4.50
2018-03-28T05:06:20.728Z,4.50
2018-03-28T05:08:48.959Z,4.50
2018-03-28T05:11:17.198Z,4.40
2018-03-28T05:13:46.159Z,4.40
2018-03-28T05:16:14.390Z,4.30
2018-03-28T05:18:42.591Z,4.30
2018-03-28T05:21:10.763Z,4.20
2018-03-28T05:23:38.987Z,4.30
2018-03-28T05:26:07.167Z,4.20
2018-03-28T05:28:35.359Z,4.20
2018-03-28T05:31:03.523Z,4.10
2018-03-28T05:33:31.711Z,4.10
2018-03-28T05:35:59.900Z,4.00
2018-03-28T05:38:28.106Z,4.10
2018-03-28T05:40:57.056Z,4.10
2018-03-28T05:43:25.254Z,4.10
2018-03-28T05:45:53.470Z,4.20
2018-03-28T05:48:21.683Z,4.10
2018-03-28T05:50:49.893Z,4.10
2018-03-28T05:53:18.886Z,4.00
2018-03-28T05:55:47.951Z,4.00
2018-03-28T05:58:16.178Z,4.00
2018-03-28T06:00:44.355Z,3.90
2018-03-28T06:03:12.810Z,3.90
2018-03-28T06:05:41.855Z,3.90
2018-03-28T06:08:10.034Z,3.90
2018-03-28T06:10:38.228Z,3.80
2018-03-28T06:13:06.402Z,3.80
2018-03-28T06:15:34.605Z,3.80
2018-03-28T06:18:03.563Z,3.80
2018-03-28T06:20:31.743Z,3.80
2018-03-28T06:22:59.998Z,3.90
2018-03-28T06:25:28.210Z,3.80
2018-03-28T06:27:57.140Z,3.90
2018-03-28T06:30:25.338Z,3.90
2018-03-28T06:32:53.571Z,3.80
2018-03-28T06:35:21.796Z,3.80
2018-03-28T06:37:49.983Z,3.80
2018-03-28T06:40:19.070Z,3.80
2018-03-28T06:42:47.398Z,3.70
2018-03-28T06:45:15.636Z,3.70
2018-03-28T06:47:43.850Z,3.80
2018-03-28T06:50:12.085Z,3.80
2018-03-28T06:52:40.263Z,3.90
2018-03-28T06:55:09.235Z,3.90
2018-03-28T06:57:37.418Z,3.90
2018-03-28T07:00:05.595Z,3.90
2018-03-28T07:02:34.684Z,3.90
2018-03-28T07:05:02.894Z,3.90
2018-03-28T07:07:31.141Z,4.00
2018-03-28T07:09:59.310Z,4.10
2018-03-28T07:12:27.506Z,4.10
2018-03-28T07:14:56.478Z,4.00
2018-03-28T07:17:25.473Z,4.10
2018-03-28T07:19:53.779Z,4.00
2018-03-28T07:22:22.124Z,4.10
2018-03-28T07:24:51.126Z,4.10
2018-03-28T07:27:20.083Z,4.00
2018-03-28T07:29:48.283Z,4.00
2018-03-28T07:32:17.262Z,4.20
2018-03-28T07:34:45.446Z,4.10
2018-03-28T07:37:14.410Z,4.30
2018-03-28T07:39:42.622Z,4.30
2018-03-28T07:42:11.583Z,4.50
2018-03-28T07:44:39.782Z,4.50
2018-03-28T07:47:08.730Z,4.40
2018-03-28T07:49:36.936Z,4.40
2018-03-28T07:52:05.968Z,4.50
2018-03-28T07:54:34.142Z,4.50
2018-03-28T07:57:02.428Z,4.50
2018-03-28T07:59:30.678Z,4.30
2018-03-28T08:01:58.867Z,4.40
2018-03-28T08:04:27.143Z,4.50
2018-03-28T08:06:55.393Z,4.40
2018-03-28T08:09:23.671Z,4.40
2018-03-28T08:11:51.891Z,4.40
2018-03-28T08:14:20.101Z,4.30
2018-03-28T08:16:49.166Z,4.20
2018-03-28T08:19:17.438Z,4.20
2018-03-28T08:21:45.664Z,4.30
2018-03-28T08:24:13.840Z,4.30
2018-03-28T08:26:42.078Z,4.30
2018-03-28T08:29:10.319Z,4.40
2018-03-28T08:31:38.538Z,4.40
2018-03-28T08:34:06.755Z,4.40
2018-03-28T08:36:34.987Z,4.40
2018-03-28T08:39:03.981Z,4.50
2018-03-28T08:41:33.006Z,4.40
2018-03-28T08:44:01.249Z,4.40
2018-03-28T08:46:29.444Z,4.50
2018-03-28T08:48:57.706Z,4.60
2018-03-28T08:51:26.728Z,4.40
2018-03-28T08:53:54.910Z,4.40
2018-03-28T08:56:23.264Z,4.40
2018-03-28T08:58:51.437Z,4.40
2018-03-28T09:01:19.693Z,4.50
2018-03-28T09:03:48.650Z,4.50
2018-03-28T09:06:16.866Z,4.50
2018-03-28T09:08:45.152Z,4.50
2018-03-28T09:11:13.369Z,4.50
2018-03-28T09:13:41.774Z,4.50
2018-03-28T09:16:10.015Z,4.40
2018-03-28T09:18:38.279Z,4.40
2018-03-28T09:21:06.522Z,4.40
2018-03-28T09:23:34.727Z,4.40
2018-03-28T09:26:02.934Z,4.50
2018-03-28T09:28:31.157Z,4.60
2018-03-28T09:30:59.339Z,4.60
2018-03-28T09:33:28.356Z,4.70
2018-03-28T09:35:56.644Z,4.70
2018-03-28T09:38:26.171Z,4.80
2018-03-28T09:40:55.394Z,4.80
2018-03-28T09:43:23.988Z,4.70
2018-03-28T09:45:52.971Z,4.60
2018-03-28T09:48:21.938Z,4.70
2018-03-28T09:50:50.910Z,4.60
2018-03-28T09:53:19.190Z,4.60
2018-03-28T09:55:47.362Z,4.60
2018-03-28T09:58:15.546Z,4.70
2018-03-28T10:00:45.635Z,4.70
2018-03-28T10:03:13.844Z,4.60
2018-03-28T10:05:42.864Z,4.60
2018-03-28T10:08:11.046Z,4.60
2018-03-28T10:10:39.222Z,4.60
2018-03-28T10:13:07.479Z,4.60
2018-03-28T10:15:35.659Z,4.50
2018-03-28T10:18:03.872Z,4.50
2018-03-28T10:20:32.192Z,4.50
2018-03-28T10:23:01.225Z,4.70
2018-03-28T10:25:29.430Z,4.70
2018-03-28T10:27:57.659Z,4.80
2018-03-28T10:30:25.981Z,4.80
2018-03-28T10:32:54.277Z,4.70
2018-03-28T10:35:23.320Z,4.70
2018-03-28T10:37:51.494Z,4.70
2018-03-28T10:40:19.831Z,4.70
2018-03-28T10:42:48.772Z,4.70
2018-03-28T10:45:16.942Z,4.70
2018-03-28T10:47:45.112Z,4.70
2018-03-28T10:50:13.284Z,4.70
2018-03-28T10:52:41.554Z,4.70
2018-03-28T10:55:09.730Z,4.70
2018-03-28T10:57:38.053Z,4.80
2018-03-28T11:00:06.995Z,5.00
2018-03-28T11:02:35.179Z,5.00
2018-03-28T11:05:03.416Z,5.00
2018-03-28T11:07:31.611Z,4.90
2018-03-28T11:09:59.840Z,4.90
2018-03-28T11:12:28.091Z,4.80
2018-03-28T11:14:56.346Z,4.90
2018-03-28T11:17:24.912Z,5.00
2018-03-28T11:19:53.778Z,5.00
2018-03-28T11:22:22.110Z,5.00
2018-03-28T11:24:50.396Z,4.90
2018-03-28T11:27:18.748Z,4.90
2018-03-28T11:29:46.972Z,4.80
2018-03-28T11:32:15.960Z,4.80
2018-03-28T11:34:44.938Z,4.70
2018-03-28T11:37:13.342Z,4.70
2018-03-28T11:39:42.020Z,4.80
2018-03-28T11:42:11.023Z,4.80
2018-03-28T11:44:39.267Z,4.80
2018-03-28T11:47:07.497Z,4.80
2018-03-28T11:49:35.737Z,4.60
2018-03-28T11:52:04.813Z,4.80
2018-03-28T11:54:33.033Z,4.80
2018-03-28T11:57:01.256Z,4.80
2018-03-28T11:59:29.433Z,4.80
2018-03-28T12:01:57.616Z,4.80
2018-03-28T12:04:26.631Z,5.00
2018-03-28T12:06:54.823Z,5.00
2018-03-28T12:09:23.112Z,5.00
2018-03-28T12:11:51.316Z,5.10
2018-03-28T12:14:20.369Z,4.90
2018-03-28T12:16:49.339Z,4.80
2018-03-28T12:19:17.625Z,4.80
2018-03-28T12:21:45.923Z,4.80
2018-03-28T12:24:14.319Z,4.80
2018-03-28T12:26:42.614Z,4.80
2018-03-28T12:29:10.796Z,4.80
2018-03-28T12:31:39.761Z,4.80
2018-03-28T12:34:08.035Z,4.80
2018-03-28T12:36:36.264Z,4.70
2018-03-28T12:39:04.507Z,4.70
2018-03-28T12:41:32.769Z,4.80
2018-03-28T12:44:01.162Z,4.70
2018-03-28T12:46:30.128Z,4.80
2018-03-28T12:48:58.330Z,4.80
2018-03-28T12:51:27.298Z,4.90
2018-03-28T12:53:56.322Z,4.90
2018-03-28T12:56:24.487Z,4.90
2018-03-28T12:58:52.687Z,5.00
2018-03-28T13:01:21.783Z,4.90
2018-03-28T13:03:50.018Z,5.00
2018-03-28T13:06:18.193Z,5.00
2018-03-28T13:08:47.185Z,4.90
2018-03-28T13:11:16.300Z,4.90
2018-03-28T13:13:44.704Z,4.90
2018-03-28T13:16:12.893Z,4.80
2018-03-28T13:18:41.156Z,4.90
2018-03-28T13:21:09.452Z,4.80
2018-03-28T13:23:37.636Z,4.70
2018-03-28T13:26:05.831Z,4.70
2018-03-28T13:28:34.823Z,4.70
2018-03-28T13:31:03.767Z,4.80
2018-03-28T13:33:31.997Z,4.80
2018-03-28T13:36:01.004Z,4.50
2018-03-28T13:38:29.254Z,4.50
2018-03-28T13:40:58.249Z,4.50
2018-03-28T13:43:27.275Z,4.60
2018-03-28T13:45:56.724Z,4.60
2018-03-28T13:51:01.315Z,4.50
2018-03-28T13:53:29.518Z,4.60
2018-03-28T13:55:57.719Z,4.40
2018-03-28T13:58:26.122Z,4.40
2018-03-28T14:00:55.076Z,4.30
2018-03-28T14:03:23.348Z,4.30
2018-03-28T14:05:51.574Z,4.40
2018-03-28T14:08:19.780Z,4.50
2018-03-28T14:10:48.015Z,4.60
2018-03-28T14:13:16.235Z,4.60
2018-03-28T14:15:44.463Z,4.60
2018-03-28T14:18:12.737Z,4.60
2018-03-28T14:20:41.672Z,4.60
2018-03-28T14:23:09.898Z,4.60
2018-03-28T14:25:38.094Z,4.50
2018-03-28T14:28:06.339Z,4.50
2018-03-28T14:30:35.310Z,4.30
2018-03-28T14:33:03.483Z,4.30
2018-03-28T14:35:31.794Z,4.30
2018-03-28T14:38:00.015Z,4.30
2018-03-28T14:40:28.356Z,4.30
2018-03-28T14:42:56.631Z,4.30
2018-03-28T14:45:24.809Z,4.30
2018-03-28T14:47:52.974Z,4.40
2018-03-28T14:50:21.166Z,4.40
2018-03-28T14:52:49.380Z,4.40
2018-03-28T14:55:17.766Z,4.30
2018-03-28T14:57:46.206Z,4.30
2018-03-28T15:00:14.494Z,4.30
2018-03-28T15:02:42.796Z,4.10
2018-03-28T15:05:11.004Z,4.00
2018-03-28T15:07:39.257Z,4.10
2018-03-28T15:10:07.458Z,4.30
2018-03-28T15:12:35.678Z,4.30
2018-03-28T15:15:04.762Z,4.10
2018-03-28T15:17:33.159Z,4.10
2018-03-28T15:20:01.379Z,4.10
2018-03-28T15:22:29.619Z,4.10
2018-03-28T15:24:58.596Z,4.20
2018-03-28T15:27:26.803Z,4.20
2018-03-28T15:29:55.013Z,4.10
2018-03-28T15:32:23.222Z,4.00
2018-03-28T15:38:13.436Z,4.20
2018-03-28T15:40:41.624Z,4.20
2018-03-28T15:43:09.810Z,4.10
2018-03-28T15:45:38.270Z,4.10
2018-03-28T15:48:06.630Z,4.20
2018-03-28T15:50:34.981Z,4.20
2018-03-28T15:53:03.241Z,4.20
2018-03-28T15:55:31.513Z,4.20
2018-03-28T15:57:59.891Z,4.20
2018-03-28T16:00:28.320Z,4.10
2018-03-28T16:02:56.509Z,4.20
2018-03-28T16:05:24.911Z,4.10
2018-03-28T16:07:53.191Z,4.10
2018-03-28T16:10:21.474Z,4.00
2018-03-28T16:12:49.726Z,3.90
2018-03-28T16:15:17.987Z,4.00
2018-03-28T16:17:46.992Z,3.90
2018-03-28T16:20:15.266Z,3.90
2018-03-28T16:22:44.326Z,4.00
2018-03-28T16:25:12.526Z,3.90
2018-03-28T16:27:41.590Z,3.80
2018-03-28T16:30:09.782Z,3.80
2018-03-28T16:32:38.174Z,3.80
2018-03-28T16:35:07.129Z,3.80
2018-03-28T16:37:35.350Z,3.80
2018-03-28T16:40:03.523Z,3.90
2018-03-28T16:42:31.731Z,3.90
2018-03-28T16:44:59.937Z,3.80
2018-03-28T16:47:28.151Z,3.80
2018-03-28T16:49:56.407Z,3.80
2018-03-28T16:52:25.340Z,3.80
2018-03-28T16:54:53.664Z,3.80
2018-03-28T16:57:22.657Z,3.90
2018-03-28T16:59:50.871Z,3.90
2018-03-28T17:02:19.117Z,3.80
2018-03-28T17:04:48.127Z,3.80
2018-03-28T17:07:17.112Z,3.70
2018-03-28T17:09:45.359Z,3.70
2018-03-28T17:12:14.333Z,3.50
2018-03-28T17:14:42.712Z,3.50
2018-03-28T17:17:10.912Z,3.60
2018-03-28T17:19:39.135Z,3.60
2018-03-28T17:22:07.336Z,3.50
2018-03-28T17:24:35.610Z,3.50
2018-03-28T17:27:03.828Z,3.50
2018-03-28T17:29:32.091Z,3.50
2018-03-28T17:32:01.159Z,3.40
2018-03-28T17:34:29.334Z,3.40
2018-03-28T17:36:57.587Z,3.40
2018-03-28T17:39:25.857Z,3.40
2018-03-28T17:41:54.133Z,3.40
2018-03-28T17:44:22.347Z,3.40
2018-03-28T17:46:51.517Z,3.40
2018-03-28T17:49:19.722Z,3.40
2018-03-28T17:51:48.731Z,3.50
2018-03-28T17:54:16.956Z,3.40
2018-03-28T17:59:20.296Z,3.40
2018-03-28T18:01:48.520Z,3.30
2018-03-28T18:04:16.715Z,3.30
2018-03-28T18:06:45.624Z,3.40
2018-03-28T18:09:13.826Z,3.20
2018-03-28T18:11:42.092Z,3.20
2018-03-28T18:14:10.328Z,3.10
2018-03-28T18:16:38.518Z,3.20
2018-03-28T18:19:06.724Z,3.10
2018-03-28T18:21:34.944Z,3.10
2018-03-28T18:24:03.181Z,3.00
2018-03-28T18:26:31.424Z,3.00
2018-03-28T18:28:59.647Z,2.90
2018-03-28T18:31:27.867Z,2.90
2018-03-28T18:33:56.141Z,2.80
2018-03-28T18:36:24.373Z,2.90
2018-03-28T18:38:52.558Z,2.90
2018-03-28T18:41:20.747Z,2.90
2018-03-28T18:43:49.831Z,2.80
2018-03-28T18:46:18.056Z,2.70
2018-03-28T18:48:46.269Z,2.80
2018-03-28T18:51:14.695Z,2.70
2018-03-28T18:53:42.949Z,2.70
2018-03-28T18:56:11.159Z,2.70
2018-03-28T18:58:39.392Z,2.70
2018-03-28T19:01:07.683Z,2.70
2018-03-28T19:03:36.118Z,2.70
2018-03-28T19:06:04.282Z,2.50
2018-03-28T19:08:32.501Z,2.40
2018-03-28T19:11:00.702Z,2.40
2018-03-28T19:13:28.912Z,2.40
2018-03-28T19:15:57.116Z,2.50
2018-03-28T19:18:25.368Z,2.50
2018-03-28T19:20:53.641Z,2.50
2018-03-28T19:23:21.842Z,2.50
2018-03-28T19:25:50.099Z,2.40
2018-03-28T19:28:18.300Z,2.40
2018-03-28T19:30:46.631Z,2.40
2018-03-28T19:33:14.856Z,2.40
2018-03-28T19:35:43.948Z,2.30
2018-03-28T19:38:13.054Z,2.30
2018-03-28T19:40:41.296Z,2.30
2018-03-28T19:43:10.317Z,2.30
2018-03-28T19:45:39.282Z,2.30
2018-03-28T19:48:07.487Z,2.30
2018-03-28T19:50:36.506Z,2.20
2018-03-28T19:53:04.775Z,2.20
2018-03-28T19:55:33.881Z,2.20
2018-03-28T19:58:02.092Z,2.20
2018-03-28T20:00:30.357Z,2.20
2018-03-28T20:02:58.571Z,2.20
2018-03-28T20:05:27.560Z,2.10
2018-03-28T20:07:56.525Z,2.00
2018-03-28T20:10:24.795Z,2.00
2018-03-28T20:12:53.002Z,2.00
2018-03-28T20:15:22.070Z,1.90
2018-03-28T20:17:50.287Z,1.90
2018-03-28T20:20:18.592Z,1.90
2018-03-28T20:22:46.961Z,1.90
2018-03-28T20:25:15.217Z,1.90
2018-03-28T20:27:43.440Z,1.90
2018-03-28T20:30:11.704Z,1.90
2018-03-28T20:32:39.991Z,1.90
2018-03-28T20:35:08.303Z,1.90
2018-03-28T20:37:36.506Z,1.80
2018-03-28T20:40:04.731Z,1.90
2018-03-28T20:42:32.960Z,1.80
2018-03-28T20:45:01.194Z,1.80
2018-03-28T20:47:30.209Z,1.70
2018-03-28T20:49:58.421Z,1.70
2018-03-28T20:52:26.615Z,1.70
2018-03-28T20:54:54.837Z,1.60
2018-03-28T20:57:23.040Z,1.60
2018-03-28T20:59:51.251Z,1.60
2018-03-28T21:02:20.288Z,1.70
2018-03-28T21:04:48.664Z,1.70
2018-03-28T21:07:16.880Z,1.70
2018-03-28T21:09:45.103Z,1.70
2018-03-28T21:12:13.335Z,1.70
2018-03-28T21:14:42.366Z,1.60
2018-03-28T21:17:10.719Z,1.60
2018-03-28T21:19:39.815Z,1.80
2018-03-28T21:22:08.038Z,1.70
2018-03-28T21:24:36.403Z,1.70
2018-03-28T21:27:04.667Z,1.80
2018-03-28T21:29:32.975Z,1.70
2018-03-28T21:32:01.162Z,1.60
2018-03-28T21:34:29.386Z,1.70
2018-03-28T21:36:57.595Z,1.60
2018-03-28T21:39:25.843Z,1.50
2018-03-28T21:41:54.834Z,1.40
2018-03-28T21:44:23.040Z,1.40
2018-03-28T21:46:51.247Z,1.40
2018-03-28T21:49:20.312Z,1.40
2018-03-28T21:51:48.496Z,1.40
2018-03-28T21:54:16.743Z,1.40
2018-03-28T21:56:44.936Z,1.40
2018-03-28T21:59:13.181Z,1.40
2018-03-28T22:01:41.400Z,1.40
2018-03-28T22:04:10.505Z,1.40
2018-03-28T22:06:38.842Z,1.40
2018-03-28T22:09:07.035Z,1.40
2018-03-28T22:11:35.274Z,1.40
2018-03-28T22:14:03.589Z,1.40
2018-03-28T22:16:31.765Z,1.40
2018-03-28T22:18:59.998Z,1.40
2018-03-28T22:21:28.219Z,1.40
2018-03-28T22:23:56.418Z,1.30
2018-03-28T22:26:24.589Z,1.30
2018-03-28T22:28:53.555Z,1.30
2018-03-28T22:31:21.760Z,1.30
2018-03-28T22:33:49.949Z,1.40
2018-03-28T22:36:18.131Z,1.40
2018-03-28T22:38:46.340Z,1.30
2018-03-28T22:41:14.571Z,1.30
2018-03-28T22:43:42.795Z,1.30
2018-03-28T22:46:10.979Z,1.50
2018-03-28T22:48:39.938Z,1.50
2018-03-28T22:51:08.129Z,1.50
2018-03-28T22:53:36.420Z,1.60
2018-03-28T22:56:05.389Z,1.60
2018-03-28T22:58:33.575Z,1.60
2018-03-28T23:01:01.796Z,1.70
2018-03-28T23:03:30.026Z,1.70
2018-03-28T23:05:58.239Z,1.70
2018-03-28T23:08:26.430Z,1.70
2018-03-28T23:10:54.743Z,1.80
2018-03-28T23:13:22.998Z,1.70
2018-03-28T23:15:51.287Z,1.70
2018-03-28T23:18:19.476Z,1.70
2018-03-28T23:20:47.658Z,1.70
2018-03-28T23:23:15.997Z,1.60
2018-03-28T23:25:44.258Z,1.70
2018-03-28T23:28:12.455Z,1.70
2018-03-28T23:30:40.738Z,1.70
2018-03-28T23:33:09.035Z,1.70
2018-03-28T23:35:37.970Z,1.70
2018-03-28T23:38:06.189Z,1.70
2018-03-28T23:40:34.362Z,1.70
2018-03-28T23:43:03.359Z,1.70
2018-03-28T23:45:31.614Z,1.70
2018-03-28T23:47:59.816Z,1.80
2018-03-28T23:50:28.742Z,1.80
2018-03-28T23:52:56.944Z,1.70
2018-03-28T23:55:25.147Z,1.80
2018-03-28T23:57:53.332Z,1.80
